Kimberly Turecamo — WDC6838 — position and weather

sailwx.info

Track history (hours):
 
Tides and Currents Weather Stations Pressure Air Temp Water Temp Dewpoint Dewpoint Depression Visibility Wind Speed Wind Dir Waves Ship Positions

Kimberly Turecamo

Owner: Moran Towing Corporation, New Canaan, CT. More information available from US FCC via Universal Licensing System and Coast Guard Vessel Documentation Center.

Last reported at 2018-Jul-20 04:26 UTC. Time now 2018-Jul-20 04:31 UTC.
Position N 40°38' W 074°08'.

Length 31 m; draft 5 m.

Type: Tug. MMSI: 367061980.

Date/timePositionNaut miles runAvg speedWind from/ knotsBaromVisibWave heightAir tempDewpointWater temp
2018-Jul-20 04:26N 40°38' W 074°08'0 0.0
2018-Jul-20 03:56N 40°38' W 074°08'0 0.0
2018-Jul-20 03:29N 40°38' W 074°08'0 0.0
2018-Jul-20 02:59N 40°38' W 074°08'0 0.0
2018-Jul-20 02:29N 40°38' W 074°08'0 0.0
2018-Jul-20 01:59N 40°38' W 074°08'2 4.2
2018-Jul-20 01:30N 40°40' W 074°08'1 1.3
2018-Jul-20 00:47N 40°41' W 074°08'1 4.7
2018-Jul-20 00:30N 40°40' W 074°08'2 2.9
2018-Jul-19 23:55N 40°38' W 074°08'0 0.0
2018-Jul-19 23:25N 40°38' W 074°08'0 0.0
2018-Jul-19 22:58N 40°38' W 074°08'0 0.0
2018-Jul-19 22:28N 40°38' W 074°08'0 0.0
2018-Jul-19 21:58N 40°38' W 074°08'0 0.0
2018-Jul-19 21:25N 40°38' W 074°08'0 0.0
2018-Jul-19 20:58N 40°38' W 074°08'0 0.0
2018-Jul-19 20:25N 40°38' W 074°08'0 0.0
2018-Jul-19 19:55N 40°38' W 074°08'0 0.0
2018-Jul-19 19:28N 40°38' W 074°08'0 0.0
2018-Jul-19 18:55N 40°38' W 074°08'0 0.0
2018-Jul-19 18:25N 40°38' W 074°08'0 0.0
2018-Jul-19 17:55N 40°38' W 074°08'0 0.0
2018-Jul-19 17:28N 40°38' W 074°08'0 0.0
2018-Jul-19 16:55N 40°38' W 074°08'0 0.0
2018-Jul-19 16:25N 40°38' W 074°08'0 0.0
2018-Jul-19 15:40N 40°38' W 074°08'0 0.0
2018-Jul-19 15:25N 40°38' W 074°08'0 0.0
2018-Jul-19 14:49N 40°38' W 074°08'0 0.0
2018-Jul-19 13:43N 40°38' W 074°08'1 5.7
2018-Jul-19 13:30N 40°39' W 074°09'2 4.3
2018-Jul-19 12:59N 40°42' W 074°08'1 2.7
2018-Jul-19 12:30N 40°40' W 074°08'2 4.4
2018-Jul-19 11:59N 40°39' W 074°06'3 5.9
2018-Jul-19 11:29N 40°37' W 074°03'0 0.8
2018-Jul-19 11:00N 40°37' W 074°03'4 1.1
2018-Jul-19 07:22N 40°38' W 074°08'3 9.1
2018-Jul-19 07:00N 40°39' W 074°04'2 4.0
2018-Jul-19 06:29N 40°40' W 074°01'0 0.5
2018-Jul-19 06:00N 40°40' W 074°01'2 3.2
2018-Jul-19 05:28N 40°41' W 074°00'0 0.6
2018-Jul-19 05:00N 40°41' W 074°01'3 5.8
2018-Jul-19 04:30N 40°40' W 074°04'3 1.5
2018-Jul-19 02:20N 40°38' W 074°08'4 1.1
2018-Jul-18 22:52N 40°37' W 074°12'3 7.6
2018-Jul-18 22:30N 40°39' W 074°10'2 4.8
2018-Jul-18 21:59N 40°41' W 074°08'0 0.3
2018-Jul-18 21:29N 40°41' W 074°09'1 2.1
2018-Jul-18 20:59N 40°40' W 074°08'1 2.7
2018-Jul-18 20:30N 40°39' W 074°08'3 5.1
2018-Jul-18 20:00N 40°39' W 074°04'2 3.1
2018-Jul-18 19:30N 40°40' W 074°03'1 2.5
2018-Jul-18 18:59N 40°41' W 074°04'2 4.1
2018-Jul-18 18:30N 40°39' W 074°05'2 4.1
2018-Jul-18 17:59N 40°38' W 074°08'0 0.0
2018-Jul-18 17:26N 40°38' W 074°08'0 0.0
2018-Jul-18 16:59N 40°38' W 074°08'0 0.0
2018-Jul-18 16:26N 40°38' W 074°08'0 0.0
2018-Jul-18 15:59N 40°38' W 074°08'0 0.0
2018-Jul-18 15:29N 40°38' W 074°08'0 0.0
2018-Jul-18 14:59N 40°38' W 074°08'0 0.0
2018-Jul-18 14:29N 40°38' W 074°08'0 0.0
2018-Jul-18 13:59N 40°38' W 074°08'0 0.0
2018-Jul-18 13:29N 40°38' W 074°08'0 0.0
2018-Jul-18 12:59N 40°38' W 074°08'0 0.0
2018-Jul-18 12:26N 40°38' W 074°08'0 0.0
2018-Jul-18 11:59N 40°38' W 074°08'1 0.5
2018-Jul-18 10:30N 40°39' W 074°09'3 5.1
2018-Jul-18 10:00N 40°39' W 074°06'3 6.6
2018-Jul-18 09:30N 40°36' W 074°03'1 1.9
2018-Jul-18 09:00N 40°37' W 074°03'3 6.2
2018-Jul-18 08:30N 40°39' W 074°07'2 3.1
2018-Jul-18 08:00N 40°40' W 074°08'0 0.5
2018-Jul-18 07:29N 40°40' W 074°09'0 0.2
2018-Jul-18 07:00N 40°40' W 074°09'1 2.9
2018-Jul-18 06:29N 40°39' W 074°08'1 1.1
2018-Jul-18 05:58N 40°38' W 074°08'0 0.0
2018-Jul-18 05:28N 40°38' W 074°08'0 0.0
2018-Jul-18 04:58N 40°38' W 074°08'0 0.0
2018-Jul-18 04:28N 40°38' W 074°08'0 0.0
2018-Jul-18 03:58N 40°38' W 074°08'0 0.0
2018-Jul-18 03:28N 40°38' W 074°08'3 3.0
2018-Jul-18 02:22N 40°38' W 074°12'3 6.6
2018-Jul-18 01:59N 40°39' W 074°09'4 9.4
2018-Jul-18 01:30N 40°40' W 074°03'4 8.5
2018-Jul-18 01:00N 40°42' W 073°59'4 2.7
2018-Jul-17 23:38N 40°46' W 073°57'1 8.1
2018-Jul-17 23:30N 40°45' W 073°58'4 7.5
2018-Jul-17 23:00N 40°42' W 074°00'1 1.5
2018-Jul-17 22:30N 40°41' W 074°01'0 0.2
2018-Jul-17 21:58N 40°41' W 074°01'0 0.0
2018-Jul-17 21:28N 40°41' W 074°01'0 0.0
2018-Jul-17 20:58N 40°41' W 074°01'0 0.0
2018-Jul-17 20:31N 40°41' W 074°01'0 0.3
2018-Jul-17 20:00N 40°41' W 074°01'1 2.0
2018-Jul-17 19:29N 40°41' W 074°02'2 3.7
2018-Jul-17 18:59N 40°39' W 074°03'4 6.9
2018-Jul-17 18:26N 40°38' W 074°08'0 0.0
2018-Jul-17 17:56N 40°38' W 074°08'0 0.0
2018-Jul-17 17:26N 40°38' W 074°08'0 0.0
2018-Jul-17 16:53N 40°38' W 074°08'0 0.0
2018-Jul-17 13:02N 40°38' W 074°08'0 0.0
2018-Jul-17 12:56N 40°38' W 074°08'0 0.0
2018-Jul-17 12:26N 40°38' W 074°08'1 1.9
2018-Jul-17 12:00N 40°39' W 074°09'2 3.1
2018-Jul-17 11:17N 40°41' W 074°09'0 0.5
2018-Jul-17 10:59N 40°41' W 074°09'1 3.1
2018-Jul-17 10:30N 40°39' W 074°09'1 2.5
2018-Jul-17 10:00N 40°39' W 074°07'1 2.5
2018-Jul-17 09:30N 40°39' W 074°06'2 3.4
2018-Jul-17 09:00N 40°38' W 074°08'0 0.0
2018-Jul-17 08:30N 40°38' W 074°08'0 0.0
2018-Jul-17 08:00N 40°38' W 074°08'3 7.1
2018-Jul-17 07:31N 40°42' W 074°07'1 1.6
2018-Jul-17 06:58N 40°43' W 074°07'0 0.1
2018-Jul-17 06:19N 40°43' W 074°07'0 0.0
2018-Jul-17 05:51N 40°43' W 074°07'2 7.2
2018-Jul-17 05:30N 40°40' W 074°08'2 3.3
2018-Jul-17 04:56N 40°38' W 074°08'0 0.0
2018-Jul-17 04:26N 40°38' W 074°08'0 0.0
2018-Jul-17 03:59N 40°38' W 074°08'0 0.0
2018-Jul-17 03:20N 40°38' W 074°08'0 0.0
2018-Jul-17 02:56N 40°38' W 074°08'0 0.0
2018-Jul-17 02:26N 40°38' W 074°08'0 0.0
2018-Jul-17 01:59N 40°38' W 074°08'0 0.0
2018-Jul-17 01:26N 40°38' W 074°08'0 0.0
2018-Jul-17 00:58N 40°38' W 074°08'1 0.3
2018-Jul-16 21:57N 40°39' W 074°07'2 4.3
2018-Jul-16 21:31N 40°40' W 074°05'0 0.1
2018-Jul-16 20:55N 40°40' W 074°05'1 3.1
2018-Jul-16 20:31N 40°39' W 074°03'3 5.8
2018-Jul-16 19:56N 40°36' W 074°03'4 8.6
2018-Jul-16 19:30N 40°39' W 074°06'1 2.1
2018-Jul-16 18:57N 40°38' W 074°08'1 2.1
2018-Jul-16 18:30N 40°39' W 074°09'4 1.8
2018-Jul-16 16:15N 40°35' W 074°12'1 3.6
2018-Jul-16 15:59N 40°36' W 074°12'2 4.0
2018-Jul-16 15:30N 40°38' W 074°12'3 5.4
2018-Jul-16 15:00N 40°39' W 074°08'3 6.3
2018-Jul-16 14:30N 40°39' W 074°04'1 1.7
2018-Jul-16 14:00N 40°39' W 074°03'2 4.2
2018-Jul-16 13:31N 40°39' W 074°06'2 3.4
2018-Jul-16 13:00N 40°38' W 074°08'0 0.0
2018-Jul-16 12:27N 40°38' W 074°08'0 0.0
2018-Jul-16 12:00N 40°38' W 074°08'1 2.0
2018-Jul-16 11:30N 40°39' W 074°09'1 1.6
2018-Jul-16 11:00N 40°40' W 074°09'1 2.3
2018-Jul-16 10:31N 40°38' W 074°09'3 5.1
2018-Jul-16 10:00N 40°39' W 074°05'2 4.6
2018-Jul-16 09:30N 40°38' W 074°03'2 4.3
2018-Jul-16 08:57N 40°40' W 074°04'0 0.0
2018-Jul-16 08:30N 40°40' W 074°04'0 0.0
2018-Jul-16 08:00N 40°40' W 074°04'0 0.5
2018-Jul-16 07:30N 40°40' W 074°04'610.8
2018-Jul-16 07:00N 40°39' W 074°11'2 0.7
2018-Jul-16 03:42N 40°36' W 074°12'1 7.5
2018-Jul-16 03:30N 40°35' W 074°13'2 0.8
2018-Jul-16 01:21N 40°36' W 074°12'3 8.0
2018-Jul-16 01:00N 40°39' W 074°10'2 3.5
2018-Jul-16 00:28N 40°38' W 074°08'0 0.0
2018-Jul-15 23:58N 40°38' W 074°08'0 0.0
2018-Jul-15 23:16N 40°38' W 074°08'310.0
2018-Jul-15 23:01N 40°39' W 074°05'1 2.4
2018-Jul-15 22:29N 40°38' W 074°04'2 4.0
2018-Jul-15 22:00N 40°39' W 074°06'1 0.2
2018-Jul-15 12:07N 40°38' W 074°08'0 0.0
2018-Jul-15 11:55N 40°38' W 074°08'3 5.0
2018-Jul-15 11:17N 40°39' W 074°04'1 2.0
2018-Jul-15 10:33N 40°40' W 074°05'0 0.2
2018-Jul-15 10:18N 40°40' W 074°05'0 0.1
2018-Jul-15 09:56N 40°40' W 074°05'2 4.1
2018-Jul-15 09:30N 40°39' W 074°06'1 2.2
2018-Jul-15 09:00N 40°38' W 074°08'0 0.0
2018-Jul-15 08:27N 40°38' W 074°08'0 0.0
2018-Jul-15 07:57N 40°38' W 074°08'0 0.0
2018-Jul-15 07:30N 40°38' W 074°08'0 0.0
2018-Jul-15 07:00N 40°38' W 074°08'0 0.0
2018-Jul-15 06:30N 40°38' W 074°08'0 0.0
2018-Jul-15 06:00N 40°38' W 074°08'0 0.0
2018-Jul-15 05:30N 40°38' W 074°08'0 0.0
2018-Jul-15 04:57N 40°38' W 074°08'0 0.0
2018-Jul-15 04:27N 40°38' W 074°08'0 0.0
2018-Jul-15 03:57N 40°38' W 074°08'0 0.0
2018-Jul-15 03:27N 40°38' W 074°08'0 0.0
2018-Jul-15 02:57N 40°38' W 074°08'0 0.0
2018-Jul-15 02:26N 40°38' W 074°08'0 0.0
2018-Jul-15 01:56N 40°38' W 074°08'0 0.0
2018-Jul-15 01:26N 40°38' W 074°08'0 0.0
2018-Jul-15 00:56N 40°38' W 074°08'0 0.0
2018-Jul-15 00:26N 40°38' W 074°08'0 0.0
2018-Jul-14 23:56N 40°38' W 074°08'0 0.0
2018-Jul-14 23:26N 40°38' W 074°08'1 2.6
2018-Jul-14 23:00N 40°39' W 074°09'2 3.8
2018-Jul-14 22:28N 40°41' W 074°08'0 0.1
2018-Jul-14 21:58N 40°41' W 074°08'3 4.9
2018-Jul-14 21:26N 40°38' W 074°08'0 0.0
2018-Jul-14 20:56N 40°38' W 074°08'0 0.0
2018-Jul-14 20:26N 40°38' W 074°08'0 0.0
2018-Jul-14 19:59N 40°38' W 074°08'0 0.0
2018-Jul-14 19:26N 40°38' W 074°08'0 0.0
2018-Jul-14 18:56N 40°38' W 074°08'0 0.0
2018-Jul-14 18:26N 40°38' W 074°08'0 0.0
2018-Jul-14 17:56N 40°38' W 074°08'0 0.0
2018-Jul-14 17:26N 40°38' W 074°08'0 0.0
2018-Jul-14 16:55N 40°38' W 074°08'0 0.0
2018-Jul-14 16:19N 40°38' W 074°08'0 0.0
2018-Jul-14 15:58N 40°38' W 074°08'0 0.0
2018-Jul-14 15:28N 40°38' W 074°08'0 0.0
2018-Jul-14 14:55N 40°38' W 074°08'0 0.0
2018-Jul-14 13:55N 40°38' W 074°08'0 0.0
2018-Jul-14 13:13N 40°38' W 074°08'0 0.0
2018-Jul-14 12:58N 40°38' W 074°08'0 0.0
2018-Jul-14 12:28N 40°38' W 074°08'0 0.0
2018-Jul-14 11:58N 40°38' W 074°08'0 0.0
2018-Jul-14 11:28N 40°38' W 074°08'0 0.0
2018-Jul-14 10:58N 40°38' W 074°08'1 1.5
2018-Jul-14 10:31N 40°39' W 074°09'3 3.7
2018-Jul-14 09:47N 40°41' W 074°08'0 0.0
2018-Jul-14 09:29N 40°41' W 074°08'0 0.8
2018-Jul-14 08:56N 40°41' W 074°08'2 5.6
2018-Jul-14 08:30N 40°39' W 074°09'1 1.6
2018-Jul-14 07:57N 40°38' W 074°08'0 0.0
2018-Jul-14 07:30N 40°38' W 074°08'0 0.0
2018-Jul-14 07:00N 40°38' W 074°08'0 0.0
2018-Jul-14 06:30N 40°38' W 074°08'0 0.0
2018-Jul-14 06:00N 40°38' W 074°08'0 0.0
2018-Jul-14 05:30N 40°38' W 074°08'0 0.0
2018-Jul-14 05:00N 40°38' W 074°08'0 0.0
2018-Jul-14 04:30N 40°38' W 074°08'0 0.0
2018-Jul-14 04:00N 40°38' W 074°08'0 0.0
2018-Jul-14 03:30N 40°38' W 074°08'0 0.0
2018-Jul-14 03:00N 40°38' W 074°08'0 0.0
2018-Jul-14 02:30N 40°38' W 074°08'0 0.0
2018-Jul-14 01:59N 40°38' W 074°08'0 0.0
2018-Jul-14 01:29N 40°38' W 074°08'0 0.0
2018-Jul-14 00:59N 40°38' W 074°08'0 0.0
2018-Jul-14 00:26N 40°38' W 074°08'0 0.0
2018-Jul-13 23:59N 40°38' W 074°08'0 0.0
2018-Jul-13 23:26N 40°38' W 074°08'0 0.0
2018-Jul-13 22:59N 40°38' W 074°08'0 0.0
2018-Jul-13 22:29N 40°38' W 074°08'0 0.0
2018-Jul-13 21:59N 40°38' W 074°08'0 0.0
2018-Jul-13 21:29N 40°38' W 074°08'0 0.0
2018-Jul-13 20:56N 40°38' W 074°08'0 0.0
2018-Jul-13 20:29N 40°38' W 074°08'0 0.0
2018-Jul-13 19:59N 40°38' W 074°08'0 0.0
2018-Jul-13 19:29N 40°38' W 074°08'0 0.0
2018-Jul-13 18:59N 40°38' W 074°08'0 0.0
2018-Jul-13 18:29N 40°38' W 074°08'0 0.0
2018-Jul-13 17:59N 40°38' W 074°08'0 0.0
2018-Jul-13 17:26N 40°38' W 074°08'0 0.0
2018-Jul-13 16:59N 40°38' W 074°08'0 0.0
2018-Jul-13 16:29N 40°38' W 074°08'0 0.0
2018-Jul-13 15:59N 40°38' W 074°08'0 0.0
2018-Jul-13 15:29N 40°38' W 074°08'0 0.0
2018-Jul-13 14:59N 40°38' W 074°08'0 0.0
2018-Jul-13 13:59N 40°38' W 074°08'0 0.0
2018-Jul-13 13:29N 40°38' W 074°08'0 0.0
2018-Jul-13 12:59N 40°38' W 074°08'0 0.0
2018-Jul-13 12:29N 40°38' W 074°08'0 0.0
2018-Jul-13 11:59N 40°38' W 074°08'0 0.0
2018-Jul-13 11:29N 40°38' W 074°08'0 0.0
2018-Jul-13 10:50N 40°38' W 074°08'0 0.0
2018-Jul-13 10:29N 40°38' W 074°08'1 1.8
2018-Jul-13 10:00N 40°39' W 074°09'1 1.9
2018-Jul-13 09:27N 40°40' W 074°09'0 0.2
2018-Jul-13 08:59N 40°40' W 074°09'0 1.0
2018-Jul-13 08:30N 40°40' W 074°08'1 2.7
2018-Jul-13 08:00N 40°39' W 074°08'2 4.9
2018-Jul-13 07:30N 40°39' W 074°05'0 0.4
2018-Jul-13 07:01N 40°39' W 074°05'3 5.3
2018-Jul-13 06:30N 40°39' W 074°09'1 2.4
2018-Jul-13 06:00N 40°41' W 074°09'1 1.0
2018-Jul-13 05:30N 40°40' W 074°08'2 3.6
2018-Jul-13 05:00N 40°38' W 074°08'0 0.0
2018-Jul-13 04:30N 40°38' W 074°08'0 0.0
2018-Jul-13 04:00N 40°38' W 074°08'0 0.0
2018-Jul-13 03:30N 40°38' W 074°08'0 0.0
2018-Jul-13 03:00N 40°38' W 074°08'0 0.0
2018-Jul-13 02:30N 40°38' W 074°08'0 0.0
2018-Jul-13 02:00N 40°38' W 074°08'0 0.0
2018-Jul-13 01:30N 40°38' W 074°08'0 0.0
2018-Jul-13 01:00N 40°38' W 074°08'0 0.0
2018-Jul-13 00:30N 40°38' W 074°08'0 0.0
2018-Jul-13 00:00N 40°38' W 074°08'0 0.0
2018-Jul-12 23:30N 40°38' W 074°08'0 0.0
2018-Jul-12 23:00N 40°38' W 074°08'0 0.0
2018-Jul-12 22:30N 40°38' W 074°08'0 0.0
2018-Jul-12 22:00N 40°38' W 074°08'0 0.0
2018-Jul-12 21:30N 40°38' W 074°08'0 0.0
2018-Jul-12 21:00N 40°38' W 074°08'0 0.0
2018-Jul-12 20:30N 40°38' W 074°08'0 0.0
2018-Jul-12 19:57N 40°38' W 074°08'0 0.0
2018-Jul-12 19:30N 40°38' W 074°08'0 0.0
2018-Jul-12 19:00N 40°38' W 074°08'0 0.0
2018-Jul-12 18:30N 40°38' W 074°08'0 0.0
2018-Jul-12 18:00N 40°38' W 074°08'0 0.0
2018-Jul-12 17:30N 40°38' W 074°08'0 0.0
2018-Jul-12 16:57N 40°38' W 074°08'0 0.0
2018-Jul-12 16:30N 40°38' W 074°08'0 0.0
2018-Jul-12 15:59N 40°38' W 074°08'0 0.0
2018-Jul-12 15:29N 40°38' W 074°08'2 4.1
2018-Jul-12 15:00N 40°39' W 074°05'510.2
2018-Jul-12 14:31N 40°43' W 074°01'3 2.6
2018-Jul-12 13:22N 40°46' W 074°00'0 0.1
2018-Jul-12 11:43N 40°46' W 074°00'2 9.7
2018-Jul-12 11:30N 40°44' W 074°01'510.9
2018-Jul-12 11:00N 40°39' W 074°04'5 9.7
2018-Jul-12 10:30N 40°39' W 074°10'1 0.5
2018-Jul-12 09:28N 40°39' W 074°11'3 6.3
2018-Jul-12 09:00N 40°39' W 074°07'3 6.4
2018-Jul-12 08:30N 40°38' W 074°03'3 5.6
2018-Jul-12 08:00N 40°39' W 074°07'1 1.5
2018-Jul-12 07:25N 40°38' W 074°08'0 0.0
2018-Jul-12 06:58N 40°38' W 074°08'0 0.0
2018-Jul-12 06:28N 40°38' W 074°08'0 0.0
2018-Jul-12 05:58N 40°38' W 074°08'0 0.0
2018-Jul-12 05:28N 40°38' W 074°08'0 0.0
2018-Jul-12 04:58N 40°38' W 074°08'0 0.0
2018-Jul-12 04:28N 40°38' W 074°08'0 0.0
2018-Jul-12 03:58N 40°38' W 074°08'0 0.0
2018-Jul-12 03:28N 40°38' W 074°08'0 0.0
2018-Jul-12 02:58N 40°38' W 074°08'0 0.0
2018-Jul-12 02:28N 40°38' W 074°08'0 0.0
2018-Jul-12 01:58N 40°38' W 074°08'0 0.0
2018-Jul-12 01:25N 40°38' W 074°08'0 0.0
2018-Jul-12 00:58N 40°38' W 074°08'0 0.0
2018-Jul-12 00:29N 40°38' W 074°08'1 2.9
2018-Jul-12 00:01N 40°40' W 074°09'0 0.3
2018-Jul-11 23:29N 40°40' W 074°09'0 0.1
2018-Jul-11 22:53N 40°40' W 074°09'0 0.0
2018-Jul-11 22:29N 40°40' W 074°09'0 0.1
2018-Jul-11 21:57N 40°40' W 074°09'0 0.0
2018-Jul-11 21:30N 40°40' W 074°09'0 0.9
2018-Jul-11 21:00N 40°39' W 074°09'4 8.7
2018-Jul-11 20:30N 40°40' W 074°03'3 4.6
2018-Jul-11 19:58N 40°41' W 074°01'0 0.2
2018-Jul-11 19:30N 40°41' W 074°01'0 0.2
2018-Jul-11 18:59N 40°41' W 074°01'0 0.1
2018-Jul-11 18:29N 40°41' W 074°01'0 0.1
2018-Jul-11 17:59N 40°41' W 074°01'1 1.2
2018-Jul-11 17:30N 40°41' W 074°01'4 7.3
2018-Jul-11 17:00N 40°39' W 074°05'2 3.2
2018-Jul-11 16:26N 40°38' W 074°08'0 0.0
2018-Jul-11 15:53N 40°38' W 074°08'0 0.0
2018-Jul-11 15:29N 40°38' W 074°08'0 0.0
2018-Jul-11 14:56N 40°38' W 074°08'0 0.0
2018-Jul-11 14:20N 40°38' W 074°08'0 0.0
2018-Jul-11 13:47N 40°38' W 074°08'4 1.4
2018-Jul-11 10:42N 40°36' W 074°12'1 4.1
2018-Jul-11 10:30N 40°36' W 074°12'2 4.3
2018-Jul-11 10:00N 40°39' W 074°11'3 5.2
2018-Jul-11 09:30N 40°39' W 074°08'0 0.4
2018-Jul-11 08:59N 40°38' W 074°08'0 0.0
2018-Jul-11 08:29N 40°38' W 074°08'0 0.0
2018-Jul-11 07:58N 40°38' W 074°08'0 0.0
2018-Jul-11 07:28N 40°38' W 074°08'1 3.1
2018-Jul-11 07:00N 40°39' W 074°06'1 2.6
2018-Jul-11 06:28N 40°38' W 074°08'0 0.0
2018-Jul-11 05:55N 40°38' W 074°08'0 0.0
2018-Jul-11 05:25N 40°38' W 074°08'0 0.0
2018-Jul-11 04:55N 40°38' W 074°08'0 0.0
2018-Jul-11 04:31N 40°38' W 074°08'0 0.2
2018-Jul-11 04:00N 40°39' W 074°08'3 0.4
2018-Jul-10 21:18N 40°39' W 074°11'1 3.5
2018-Jul-10 21:00N 40°39' W 074°10'3 5.9
2018-Jul-10 20:30N 40°39' W 074°06'3 5.1
2018-Jul-10 20:01N 40°37' W 074°03'0 0.1
2018-Jul-10 19:29N 40°37' W 074°03'2 4.7
2018-Jul-10 19:00N 40°39' W 074°06'2 3.1
2018-Jul-10 18:29N 40°38' W 074°08'0 0.0
2018-Jul-10 17:53N 40°38' W 074°08'0 0.0
2018-Jul-10 17:29N 40°38' W 074°08'0 0.0
2018-Jul-10 16:41N 40°38' W 074°08'0 0.0
2018-Jul-10 16:11N 40°38' W 074°08'0 0.0
2018-Jul-10 15:50N 40°38' W 074°08'0 0.0
2018-Jul-10 15:26N 40°38' W 074°08'0 0.0
2018-Jul-10 14:59N 40°38' W 074°08'0 0.0
2018-Jul-10 14:26N 40°38' W 074°08'0 0.0
2018-Jul-10 13:59N 40°38' W 074°08'0 0.0
2018-Jul-10 13:26N 40°38' W 074°08'0 0.0
2018-Jul-10 12:59N 40°38' W 074°08'0 0.0
2018-Jul-10 12:26N 40°38' W 074°08'0 0.0
2018-Jul-10 11:56N 40°38' W 074°08'0 1.0
2018-Jul-10 11:31N 40°39' W 074°08'2 4.4
2018-Jul-10 10:58N 40°41' W 074°08'0 0.0
2018-Jul-10 10:28N 40°41' W 074°08'0 0.0
2018-Jul-10 09:58N 40°41' W 074°08'0 0.5
2018-Jul-10 09:31N 40°41' W 074°09'1 2.8
2018-Jul-10 09:00N 40°39' W 074°09'2 3.1
2018-Jul-10 08:30N 40°39' W 074°07'3 5.4
2018-Jul-10 08:00N 40°38' W 074°03'2 4.7
2018-Jul-10 07:30N 40°39' W 074°06'1 2.0
2018-Jul-10 06:57N 40°38' W 074°08'0 0.0
2018-Jul-10 06:27N 40°38' W 074°08'0 0.0
2018-Jul-10 06:00N 40°38' W 074°08'0 0.0
2018-Jul-10 05:21N 40°38' W 074°08'0 0.0
2018-Jul-10 05:00N 40°38' W 074°08'0 0.0
2018-Jul-10 04:27N 40°38' W 074°08'  
Track history (hours):
 
Tides and Currents Weather Stations Pressure Air Temp Water Temp Dewpoint Dewpoint Depression Visibility Wind Speed Wind Dir Waves Ship Positions

Kimberly Turecamo

Owner: Moran Towing Corporation, New Canaan, CT. More information available from US FCC via Universal Licensing System and Coast Guard Vessel Documentation Center.

Last reported at 2018-Jul-20 04:26 UTC. Time now 2018-Jul-20 04:31 UTC.
Position N 40°38' W 074°08'.

Length 31 m; draft 5 m.

Type: Tug. MMSI: 367061980.

Date/timePositionNaut miles runAvg speedWind from/ knotsBaromVisibWave heightAir tempDewpointWater temp
2018-Jul-20 04:26N 40°38' W 074°08'0 0.0
2018-Jul-20 03:56N 40°38' W 074°08'0 0.0
2018-Jul-20 03:29N 40°38' W 074°08'0 0.0
2018-Jul-20 02:59N 40°38' W 074°08'0 0.0
2018-Jul-20 02:29N 40°38' W 074°08'0 0.0
2018-Jul-20 01:59N 40°38' W 074°08'2 4.2
2018-Jul-20 01:30N 40°40' W 074°08'1 1.3
2018-Jul-20 00:47N 40°41' W 074°08'1 4.7
2018-Jul-20 00:30N 40°40' W 074°08'2 2.9
2018-Jul-19 23:55N 40°38' W 074°08'0 0.0
2018-Jul-19 23:25N 40°38' W 074°08'0 0.0
2018-Jul-19 22:58N 40°38' W 074°08'0 0.0
2018-Jul-19 22:28N 40°38' W 074°08'0 0.0
2018-Jul-19 21:58N 40°38' W 074°08'0 0.0
2018-Jul-19 21:25N 40°38' W 074°08'0 0.0
2018-Jul-19 20:58N 40°38' W 074°08'0 0.0
2018-Jul-19 20:25N 40°38' W 074°08'0 0.0
2018-Jul-19 19:55N 40°38' W 074°08'0 0.0
2018-Jul-19 19:28N 40°38' W 074°08'0 0.0
2018-Jul-19 18:55N 40°38' W 074°08'0 0.0
2018-Jul-19 18:25N 40°38' W 074°08'0 0.0
2018-Jul-19 17:55N 40°38' W 074°08'0 0.0
2018-Jul-19 17:28N 40°38' W 074°08'0 0.0
2018-Jul-19 16:55N 40°38' W 074°08'0 0.0
2018-Jul-19 16:25N 40°38' W 074°08'0 0.0
2018-Jul-19 15:40N 40°38' W 074°08'0 0.0
2018-Jul-19 15:25N 40°38' W 074°08'0 0.0
2018-Jul-19 14:49N 40°38' W 074°08'0 0.0
2018-Jul-19 13:43N 40°38' W 074°08'1 5.7
2018-Jul-19 13:30N 40°39' W 074°09'2 4.3
2018-Jul-19 12:59N 40°42' W 074°08'1 2.7
2018-Jul-19 12:30N 40°40' W 074°08'2 4.4
2018-Jul-19 11:59N 40°39' W 074°06'3 5.9
2018-Jul-19 11:29N 40°37' W 074°03'0 0.8
2018-Jul-19 11:00N 40°37' W 074°03'4 1.1
2018-Jul-19 07:22N 40°38' W 074°08'3 9.1
2018-Jul-19 07:00N 40°39' W 074°04'2 4.0
2018-Jul-19 06:29N 40°40' W 074°01'0 0.5
2018-Jul-19 06:00N 40°40' W 074°01'2 3.2
2018-Jul-19 05:28N 40°41' W 074°00'0 0.6
2018-Jul-19 05:00N 40°41' W 074°01'3 5.8
2018-Jul-19 04:30N 40°40' W 074°04'3 1.5
2018-Jul-19 02:20N 40°38' W 074°08'4 1.1
2018-Jul-18 22:52N 40°37' W 074°12'3 7.6
2018-Jul-18 22:30N 40°39' W 074°10'2 4.8
2018-Jul-18 21:59N 40°41' W 074°08'0 0.3
2018-Jul-18 21:29N 40°41' W 074°09'1 2.1
2018-Jul-18 20:59N 40°40' W 074°08'1 2.7
2018-Jul-18 20:30N 40°39' W 074°08'3 5.1
2018-Jul-18 20:00N 40°39' W 074°04'2 3.1
2018-Jul-18 19:30N 40°40' W 074°03'1 2.5
2018-Jul-18 18:59N 40°41' W 074°04'2 4.1
2018-Jul-18 18:30N 40°39' W 074°05'2 4.1
2018-Jul-18 17:59N 40°38' W 074°08'0 0.0
2018-Jul-18 17:26N 40°38' W 074°08'0 0.0
2018-Jul-18 16:59N 40°38' W 074°08'0 0.0
2018-Jul-18 16:26N 40°38' W 074°08'0 0.0
2018-Jul-18 15:59N 40°38' W 074°08'0 0.0
2018-Jul-18 15:29N 40°38' W 074°08'0 0.0
2018-Jul-18 14:59N 40°38' W 074°08'0 0.0
2018-Jul-18 14:29N 40°38' W 074°08'0 0.0
2018-Jul-18 13:59N 40°38' W 074°08'0 0.0
2018-Jul-18 13:29N 40°38' W 074°08'0 0.0
2018-Jul-18 12:59N 40°38' W 074°08'0 0.0
2018-Jul-18 12:26N 40°38' W 074°08'0 0.0
2018-Jul-18 11:59N 40°38' W 074°08'1 0.5
2018-Jul-18 10:30N 40°39' W 074°09'3 5.1
2018-Jul-18 10:00N 40°39' W 074°06'3 6.6
2018-Jul-18 09:30N 40°36' W 074°03'1 1.9
2018-Jul-18 09:00N 40°37' W 074°03'3 6.2
2018-Jul-18 08:30N 40°39' W 074°07'2 3.1
2018-Jul-18 08:00N 40°40' W 074°08'0 0.5
2018-Jul-18 07:29N 40°40' W 074°09'0 0.2
2018-Jul-18 07:00N 40°40' W 074°09'1 2.9
2018-Jul-18 06:29N 40°39' W 074°08'1 1.1
2018-Jul-18 05:58N 40°38' W 074°08'0 0.0
2018-Jul-18 05:28N 40°38' W 074°08'0 0.0
2018-Jul-18 04:58N 40°38' W 074°08'0 0.0
2018-Jul-18 04:28N 40°38' W 074°08'0 0.0
2018-Jul-18 03:58N 40°38' W 074°08'0 0.0
2018-Jul-18 03:28N 40°38' W 074°08'3 3.0
2018-Jul-18 02:22N 40°38' W 074°12'3 6.6
2018-Jul-18 01:59N 40°39' W 074°09'4 9.4
2018-Jul-18 01:30N 40°40' W 074°03'4 8.5
2018-Jul-18 01:00N 40°42' W 073°59'4 2.7
2018-Jul-17 23:38N 40°46' W 073°57'1 8.1
2018-Jul-17 23:30N 40°45' W 073°58'4 7.5
2018-Jul-17 23:00N 40°42' W 074°00'1 1.5
2018-Jul-17 22:30N 40°41' W 074°01'0 0.2
2018-Jul-17 21:58N 40°41' W 074°01'0 0.0
2018-Jul-17 21:28N 40°41' W 074°01'0 0.0
2018-Jul-17 20:58N 40°41' W 074°01'0 0.0
2018-Jul-17 20:31N 40°41' W 074°01'0 0.3
2018-Jul-17 20:00N 40°41' W 074°01'1 2.0
2018-Jul-17 19:29N 40°41' W 074°02'2 3.7
2018-Jul-17 18:59N 40°39' W 074°03'4 6.9
2018-Jul-17 18:26N 40°38' W 074°08'0 0.0
2018-Jul-17 17:56N 40°38' W 074°08'0 0.0
2018-Jul-17 17:26N 40°38' W 074°08'0 0.0
2018-Jul-17 16:53N 40°38' W 074°08'0 0.0
2018-Jul-17 13:02N 40°38' W 074°08'0 0.0
2018-Jul-17 12:56N 40°38' W 074°08'0 0.0
2018-Jul-17 12:26N 40°38' W 074°08'1 1.9
2018-Jul-17 12:00N 40°39' W 074°09'2 3.1
2018-Jul-17 11:17N 40°41' W 074°09'0 0.5
2018-Jul-17 10:59N 40°41' W 074°09'1 3.1
2018-Jul-17 10:30N 40°39' W 074°09'1 2.5
2018-Jul-17 10:00N 40°39' W 074°07'1 2.5
2018-Jul-17 09:30N 40°39' W 074°06'2 3.4
2018-Jul-17 09:00N 40°38' W 074°08'0 0.0
2018-Jul-17 08:30N 40°38' W 074°08'0 0.0
2018-Jul-17 08:00N 40°38' W 074°08'3 7.1
2018-Jul-17 07:31N 40°42' W 074°07'1 1.6
2018-Jul-17 06:58N 40°43' W 074°07'0 0.1
2018-Jul-17 06:19N 40°43' W 074°07'0 0.0
2018-Jul-17 05:51N 40°43' W 074°07'2 7.2
2018-Jul-17 05:30N 40°40' W 074°08'2 3.3
2018-Jul-17 04:56N 40°38' W 074°08'0 0.0
2018-Jul-17 04:26N 40°38' W 074°08'0 0.0
2018-Jul-17 03:59N 40°38' W 074°08'0 0.0
2018-Jul-17 03:20N 40°38' W 074°08'0 0.0
2018-Jul-17 02:56N 40°38' W 074°08'0 0.0
2018-Jul-17 02:26N 40°38' W 074°08'0 0.0
2018-Jul-17 01:59N 40°38' W 074°08'0 0.0
2018-Jul-17 01:26N 40°38' W 074°08'0 0.0
2018-Jul-17 00:58N 40°38' W 074°08'1 0.3
2018-Jul-16 21:57N 40°39' W 074°07'2 4.3
2018-Jul-16 21:31N 40°40' W 074°05'0 0.1
2018-Jul-16 20:55N 40°40' W 074°05'1 3.1
2018-Jul-16 20:31N 40°39' W 074°03'3 5.8
2018-Jul-16 19:56N 40°36' W 074°03'4 8.6
2018-Jul-16 19:30N 40°39' W 074°06'1 2.1
2018-Jul-16 18:57N 40°38' W 074°08'1 2.1
2018-Jul-16 18:30N 40°39' W 074°09'4 1.8
2018-Jul-16 16:15N 40°35' W 074°12'1 3.6
2018-Jul-16 15:59N 40°36' W 074°12'2 4.0
2018-Jul-16 15:30N 40°38' W 074°12'3 5.4
2018-Jul-16 15:00N 40°39' W 074°08'3 6.3
2018-Jul-16 14:30N 40°39' W 074°04'1 1.7
2018-Jul-16 14:00N 40°39' W 074°03'2 4.2
2018-Jul-16 13:31N 40°39' W 074°06'2 3.4
2018-Jul-16 13:00N 40°38' W 074°08'0 0.0
2018-Jul-16 12:27N 40°38' W 074°08'0 0.0
2018-Jul-16 12:00N 40°38' W 074°08'1 2.0
2018-Jul-16 11:30N 40°39' W 074°09'1 1.6
2018-Jul-16 11:00N 40°40' W 074°09'1 2.3
2018-Jul-16 10:31N 40°38' W 074°09'3 5.1
2018-Jul-16 10:00N 40°39' W 074°05'2 4.6
2018-Jul-16 09:30N 40°38' W 074°03'2 4.3
2018-Jul-16 08:57N 40°40' W 074°04'0 0.0
2018-Jul-16 08:30N 40°40' W 074°04'0 0.0
2018-Jul-16 08:00N 40°40' W 074°04'0 0.5
2018-Jul-16 07:30N 40°40' W 074°04'610.8
2018-Jul-16 07:00N 40°39' W 074°11'2 0.7
2018-Jul-16 03:42N 40°36' W 074°12'1 7.5
2018-Jul-16 03:30N 40°35' W 074°13'2 0.8
2018-Jul-16 01:21N 40°36' W 074°12'3 8.0
2018-Jul-16 01:00N 40°39' W 074°10'2 3.5
2018-Jul-16 00:28N 40°38' W 074°08'0 0.0
2018-Jul-15 23:58N 40°38' W 074°08'0 0.0
2018-Jul-15 23:16N 40°38' W 074°08'310.0
2018-Jul-15 23:01N 40°39' W 074°05'1 2.4
2018-Jul-15 22:29N 40°38' W 074°04'2 4.0
2018-Jul-15 22:00N 40°39' W 074°06'1 0.2
2018-Jul-15 12:07N 40°38' W 074°08'0 0.0
2018-Jul-15 11:55N 40°38' W 074°08'3 5.0
2018-Jul-15 11:17N 40°39' W 074°04'1 2.0
2018-Jul-15 10:33N 40°40' W 074°05'0 0.2
2018-Jul-15 10:18N 40°40' W 074°05'0 0.1
2018-Jul-15 09:56N 40°40' W 074°05'2 4.1
2018-Jul-15 09:30N 40°39' W 074°06'1 2.2
2018-Jul-15 09:00N 40°38' W 074°08'0 0.0
2018-Jul-15 08:27N 40°38' W 074°08'0 0.0
2018-Jul-15 07:57N 40°38' W 074°08'0 0.0
2018-Jul-15 07:30N 40°38' W 074°08'0 0.0
2018-Jul-15 07:00N 40°38' W 074°08'0 0.0
2018-Jul-15 06:30N 40°38' W 074°08'0 0.0
2018-Jul-15 06:00N 40°38' W 074°08'0 0.0
2018-Jul-15 05:30N 40°38' W 074°08'0 0.0
2018-Jul-15 04:57N 40°38' W 074°08'0 0.0
2018-Jul-15 04:27N 40°38' W 074°08'0 0.0
2018-Jul-15 03:57N 40°38' W 074°08'0 0.0
2018-Jul-15 03:27N 40°38' W 074°08'0 0.0
2018-Jul-15 02:57N 40°38' W 074°08'0 0.0
2018-Jul-15 02:26N 40°38' W 074°08'0 0.0
2018-Jul-15 01:56N 40°38' W 074°08'0 0.0
2018-Jul-15 01:26N 40°38' W 074°08'0 0.0
2018-Jul-15 00:56N 40°38' W 074°08'0 0.0
2018-Jul-15 00:26N 40°38' W 074°08'0 0.0
2018-Jul-14 23:56N 40°38' W 074°08'0 0.0
2018-Jul-14 23:26N 40°38' W 074°08'1 2.6
2018-Jul-14 23:00N 40°39' W 074°09'2 3.8
2018-Jul-14 22:28N 40°41' W 074°08'0 0.1
2018-Jul-14 21:58N 40°41' W 074°08'3 4.9
2018-Jul-14 21:26N 40°38' W 074°08'0 0.0
2018-Jul-14 20:56N 40°38' W 074°08'0 0.0
2018-Jul-14 20:26N 40°38' W 074°08'0 0.0
2018-Jul-14 19:59N 40°38' W 074°08'0 0.0
2018-Jul-14 19:26N 40°38' W 074°08'0 0.0
2018-Jul-14 18:56N 40°38' W 074°08'0 0.0
2018-Jul-14 18:26N 40°38' W 074°08'0 0.0
2018-Jul-14 17:56N 40°38' W 074°08'0 0.0
2018-Jul-14 17:26N 40°38' W 074°08'0 0.0
2018-Jul-14 16:55N 40°38' W 074°08'0 0.0
2018-Jul-14 16:19N 40°38' W 074°08'0 0.0
2018-Jul-14 15:58N 40°38' W 074°08'0 0.0
2018-Jul-14 15:28N 40°38' W 074°08'0 0.0
2018-Jul-14 14:55N 40°38' W 074°08'0 0.0
2018-Jul-14 13:55N 40°38' W 074°08'0 0.0
2018-Jul-14 13:13N 40°38' W 074°08'0 0.0
2018-Jul-14 12:58N 40°38' W 074°08'0 0.0
2018-Jul-14 12:28N 40°38' W 074°08'0 0.0
2018-Jul-14 11:58N 40°38' W 074°08'0 0.0
2018-Jul-14 11:28N 40°38' W 074°08'0 0.0
2018-Jul-14 10:58N 40°38' W 074°08'1 1.5
2018-Jul-14 10:31N 40°39' W 074°09'3 3.7
2018-Jul-14 09:47N 40°41' W 074°08'0 0.0
2018-Jul-14 09:29N 40°41' W 074°08'0 0.8
2018-Jul-14 08:56N 40°41' W 074°08'2 5.6
2018-Jul-14 08:30N 40°39' W 074°09'1 1.6
2018-Jul-14 07:57N 40°38' W 074°08'0 0.0
2018-Jul-14 07:30N 40°38' W 074°08'0 0.0
2018-Jul-14 07:00N 40°38' W 074°08'0 0.0
2018-Jul-14 06:30N 40°38' W 074°08'0 0.0
2018-Jul-14 06:00N 40°38' W 074°08'0 0.0
2018-Jul-14 05:30N 40°38' W 074°08'0 0.0
2018-Jul-14 05:00N 40°38' W 074°08'0 0.0
2018-Jul-14 04:30N 40°38' W 074°08'0 0.0
2018-Jul-14 04:00N 40°38' W 074°08'0 0.0
2018-Jul-14 03:30N 40°38' W 074°08'0 0.0
2018-Jul-14 03:00N 40°38' W 074°08'0 0.0
2018-Jul-14 02:30N 40°38' W 074°08'0 0.0
2018-Jul-14 01:59N 40°38' W 074°08'0 0.0
2018-Jul-14 01:29N 40°38' W 074°08'0 0.0
2018-Jul-14 00:59N 40°38' W 074°08'0 0.0
2018-Jul-14 00:26N 40°38' W 074°08'0 0.0
2018-Jul-13 23:59N 40°38' W 074°08'0 0.0
2018-Jul-13 23:26N 40°38' W 074°08'0 0.0
2018-Jul-13 22:59N 40°38' W 074°08'0 0.0
2018-Jul-13 22:29N 40°38' W 074°08'0 0.0
2018-Jul-13 21:59N 40°38' W 074°08'0 0.0
2018-Jul-13 21:29N 40°38' W 074°08'0 0.0
2018-Jul-13 20:56N 40°38' W 074°08'0 0.0
2018-Jul-13 20:29N 40°38' W 074°08'0 0.0
2018-Jul-13 19:59N 40°38' W 074°08'0 0.0
2018-Jul-13 19:29N 40°38' W 074°08'0 0.0
2018-Jul-13 18:59N 40°38' W 074°08'0 0.0
2018-Jul-13 18:29N 40°38' W 074°08'0 0.0
2018-Jul-13 17:59N 40°38' W 074°08'0 0.0
2018-Jul-13 17:26N 40°38' W 074°08'0 0.0
2018-Jul-13 16:59N 40°38' W 074°08'0 0.0
2018-Jul-13 16:29N 40°38' W 074°08'0 0.0
2018-Jul-13 15:59N 40°38' W 074°08'0 0.0
2018-Jul-13 15:29N 40°38' W 074°08'0 0.0
2018-Jul-13 14:59N 40°38' W 074°08'0 0.0
2018-Jul-13 13:59N 40°38' W 074°08'0 0.0
2018-Jul-13 13:29N 40°38' W 074°08'0 0.0
2018-Jul-13 12:59N 40°38' W 074°08'0 0.0
2018-Jul-13 12:29N 40°38' W 074°08'0 0.0
2018-Jul-13 11:59N 40°38' W 074°08'0 0.0
2018-Jul-13 11:29N 40°38' W 074°08'0 0.0
2018-Jul-13 10:50N 40°38' W 074°08'0 0.0
2018-Jul-13 10:29N 40°38' W 074°08'1 1.8
2018-Jul-13 10:00N 40°39' W 074°09'1 1.9
2018-Jul-13 09:27N 40°40' W 074°09'0 0.2
2018-Jul-13 08:59N 40°40' W 074°09'0 1.0
2018-Jul-13 08:30N 40°40' W 074°08'1 2.7
2018-Jul-13 08:00N 40°39' W 074°08'2 4.9
2018-Jul-13 07:30N 40°39' W 074°05'0 0.4
2018-Jul-13 07:01N 40°39' W 074°05'3 5.3
2018-Jul-13 06:30N 40°39' W 074°09'1 2.4
2018-Jul-13 06:00N 40°41' W 074°09'1 1.0
2018-Jul-13 05:30N 40°40' W 074°08'2 3.6
2018-Jul-13 05:00N 40°38' W 074°08'0 0.0
2018-Jul-13 04:30N 40°38' W 074°08'0 0.0
2018-Jul-13 04:00N 40°38' W 074°08'0 0.0
2018-Jul-13 03:30N 40°38' W 074°08'0 0.0
2018-Jul-13 03:00N 40°38' W 074°08'0 0.0
2018-Jul-13 02:30N 40°38' W 074°08'0 0.0
2018-Jul-13 02:00N 40°38' W 074°08'0 0.0
2018-Jul-13 01:30N 40°38' W 074°08'0 0.0
2018-Jul-13 01:00N 40°38' W 074°08'0 0.0
2018-Jul-13 00:30N 40°38' W 074°08'0 0.0
2018-Jul-13 00:00N 40°38' W 074°08'0 0.0
2018-Jul-12 23:30N 40°38' W 074°08'0 0.0
2018-Jul-12 23:00N 40°38' W 074°08'0 0.0
2018-Jul-12 22:30N 40°38' W 074°08'0 0.0
2018-Jul-12 22:00N 40°38' W 074°08'0 0.0
2018-Jul-12 21:30N 40°38' W 074°08'0 0.0
2018-Jul-12 21:00N 40°38' W 074°08'0 0.0
2018-Jul-12 20:30N 40°38' W 074°08'0 0.0
2018-Jul-12 19:57N 40°38' W 074°08'0 0.0
2018-Jul-12 19:30N 40°38' W 074°08'0 0.0
2018-Jul-12 19:00N 40°38' W 074°08'0 0.0
2018-Jul-12 18:30N 40°38' W 074°08'0 0.0
2018-Jul-12 18:00N 40°38' W 074°08'0 0.0
2018-Jul-12 17:30N 40°38' W 074°08'0 0.0
2018-Jul-12 16:57N 40°38' W 074°08'0 0.0
2018-Jul-12 16:30N 40°38' W 074°08'0 0.0
2018-Jul-12 15:59N 40°38' W 074°08'0 0.0
2018-Jul-12 15:29N 40°38' W 074°08'2 4.1
2018-Jul-12 15:00N 40°39' W 074°05'510.2
2018-Jul-12 14:31N 40°43' W 074°01'3 2.6
2018-Jul-12 13:22N 40°46' W 074°00'0 0.1
2018-Jul-12 11:43N 40°46' W 074°00'2 9.7
2018-Jul-12 11:30N 40°44' W 074°01'510.9
2018-Jul-12 11:00N 40°39' W 074°04'5 9.7
2018-Jul-12 10:30N 40°39' W 074°10'1 0.5
2018-Jul-12 09:28N 40°39' W 074°11'3 6.3
2018-Jul-12 09:00N 40°39' W 074°07'3 6.4
2018-Jul-12 08:30N 40°38' W 074°03'3 5.6
2018-Jul-12 08:00N 40°39' W 074°07'1 1.5
2018-Jul-12 07:25N 40°38' W 074°08'0 0.0
2018-Jul-12 06:58N 40°38' W 074°08'0 0.0
2018-Jul-12 06:28N 40°38' W 074°08'0 0.0
2018-Jul-12 05:58N 40°38' W 074°08'0 0.0
2018-Jul-12 05:28N 40°38' W 074°08'0 0.0
2018-Jul-12 04:58N 40°38' W 074°08'0 0.0
2018-Jul-12 04:28N 40°38' W 074°08'0 0.0
2018-Jul-12 03:58N 40°38' W 074°08'0 0.0
2018-Jul-12 03:28N 40°38' W 074°08'0 0.0
2018-Jul-12 02:58N 40°38' W 074°08'0 0.0
2018-Jul-12 02:28N 40°38' W 074°08'0 0.0
2018-Jul-12 01:58N 40°38' W 074°08'0 0.0
2018-Jul-12 01:25N 40°38' W 074°08'0 0.0
2018-Jul-12 00:58N 40°38' W 074°08'0 0.0
2018-Jul-12 00:29N 40°38' W 074°08'1 2.9
2018-Jul-12 00:01N 40°40' W 074°09'0 0.3
2018-Jul-11 23:29N 40°40' W 074°09'0 0.1
2018-Jul-11 22:53N 40°40' W 074°09'0 0.0
2018-Jul-11 22:29N 40°40' W 074°09'0 0.1
2018-Jul-11 21:57N 40°40' W 074°09'0 0.0
2018-Jul-11 21:30N 40°40' W 074°09'0 0.9
2018-Jul-11 21:00N 40°39' W 074°09'4 8.7
2018-Jul-11 20:30N 40°40' W 074°03'3 4.6
2018-Jul-11 19:58N 40°41' W 074°01'0 0.2
2018-Jul-11 19:30N 40°41' W 074°01'0 0.2
2018-Jul-11 18:59N 40°41' W 074°01'0 0.1
2018-Jul-11 18:29N 40°41' W 074°01'0 0.1
2018-Jul-11 17:59N 40°41' W 074°01'1 1.2
2018-Jul-11 17:30N 40°41' W 074°01'4 7.3
2018-Jul-11 17:00N 40°39' W 074°05'2 3.2
2018-Jul-11 16:26N 40°38' W 074°08'0 0.0
2018-Jul-11 15:53N 40°38' W 074°08'0 0.0
2018-Jul-11 15:29N 40°38' W 074°08'0 0.0
2018-Jul-11 14:56N 40°38' W 074°08'0 0.0
2018-Jul-11 14:20N 40°38' W 074°08'0 0.0
2018-Jul-11 13:47N 40°38' W 074°08'4 1.4
2018-Jul-11 10:42N 40°36' W 074°12'1 4.1
2018-Jul-11 10:30N 40°36' W 074°12'2 4.3
2018-Jul-11 10:00N 40°39' W 074°11'3 5.2
2018-Jul-11 09:30N 40°39' W 074°08'0 0.4
2018-Jul-11 08:59N 40°38' W 074°08'0 0.0
2018-Jul-11 08:29N 40°38' W 074°08'0 0.0
2018-Jul-11 07:58N 40°38' W 074°08'0 0.0
2018-Jul-11 07:28N 40°38' W 074°08'1 3.1
2018-Jul-11 07:00N 40°39' W 074°06'1 2.6
2018-Jul-11 06:28N 40°38' W 074°08'0 0.0
2018-Jul-11 05:55N 40°38' W 074°08'0 0.0
2018-Jul-11 05:25N 40°38' W 074°08'0 0.0
2018-Jul-11 04:55N 40°38' W 074°08'0 0.0
2018-Jul-11 04:31N 40°38' W 074°08'0 0.2
2018-Jul-11 04:00N 40°39' W 074°08'3 0.4
2018-Jul-10 21:18N 40°39' W 074°11'1 3.5
2018-Jul-10 21:00N 40°39' W 074°10'3 5.9
2018-Jul-10 20:30N 40°39' W 074°06'3 5.1
2018-Jul-10 20:01N 40°37' W 074°03'0 0.1
2018-Jul-10 19:29N 40°37' W 074°03'2 4.7
2018-Jul-10 19:00N 40°39' W 074°06'2 3.1
2018-Jul-10 18:29N 40°38' W 074°08'0 0.0
2018-Jul-10 17:53N 40°38' W 074°08'0 0.0
2018-Jul-10 17:29N 40°38' W 074°08'0 0.0
2018-Jul-10 16:41N 40°38' W 074°08'0 0.0
2018-Jul-10 16:11N 40°38' W 074°08'0 0.0
2018-Jul-10 15:50N 40°38' W 074°08'0 0.0
2018-Jul-10 15:26N 40°38' W 074°08'0 0.0
2018-Jul-10 14:59N 40°38' W 074°08'0 0.0
2018-Jul-10 14:26N 40°38' W 074°08'0 0.0
2018-Jul-10 13:59N 40°38' W 074°08'0 0.0
2018-Jul-10 13:26N 40°38' W 074°08'0 0.0
2018-Jul-10 12:59N 40°38' W 074°08'0 0.0
2018-Jul-10 12:26N 40°38' W 074°08'0 0.0
2018-Jul-10 11:56N 40°38' W 074°08'0 1.0
2018-Jul-10 11:31N 40°39' W 074°08'2 4.4
2018-Jul-10 10:58N 40°41' W 074°08'0 0.0
2018-Jul-10 10:28N 40°41' W 074°08'0 0.0
2018-Jul-10 09:58N 40°41' W 074°08'0 0.5
2018-Jul-10 09:31N 40°41' W 074°09'1 2.8
2018-Jul-10 09:00N 40°39' W 074°09'2 3.1
2018-Jul-10 08:30N 40°39' W 074°07'3 5.4
2018-Jul-10 08:00N 40°38' W 074°03'2 4.7
2018-Jul-10 07:30N 40°39' W 074°06'1 2.0
2018-Jul-10 06:57N 40°38' W 074°08'0 0.0
2018-Jul-10 06:27N 40°38' W 074°08'0 0.0
2018-Jul-10 06:00N 40°38' W 074°08'0 0.0
2018-Jul-10 05:21N 40°38' W 074°08'0 0.0
2018-Jul-10 05:00N 40°38' W 074°08'0 0.0
2018-Jul-10 04:27N 40°38' W 074°08'  

Dump ship's entire track history